sensor_id;sensor_type;location;lat;lon;timestamp;temperature;humidity
31725;DHT22;18306;40.960;14.836;2023-06-26T00:01:41;22.90;99.90
31725;DHT22;18306;40.960;14.836;2023-06-26T00:04:09;22.70;99.90
31725;DHT22;18306;40.960;14.836;2023-06-26T00:06:41;22.80;99.90
31725;DHT22;18306;40.960;14.836;2023-06-26T00:09:08;22.90;99.90
31725;DHT22;18306;40.960;14.836;2023-06-26T00:11:35;22.90;99.90
31725;DHT22;18306;40.960;14.836;2023-06-26T00:14:02;22.90;99.90
31725;DHT22;18306;40.960;14.836;2023-06-26T00:16:29;23.00;99.90
31725;DHT22;18306;40.960;14.836;2023-06-26T00:18:57;23.10;99.90
31725;DHT22;18306;40.960;14.836;2023-06-26T00:21:25;23.10;99.90
31725;DHT22;18306;40.960;14.836;2023-06-26T00:23:52;23.00;99.90
31725;DHT22;18306;40.960;14.836;2023-06-26T00:26:19;22.90;99.90
31725;DHT22;18306;40.960;14.836;2023-06-26T00:28:46;23.00;99.90
31725;DHT22;18306;40.960;14.836;2023-06-26T00:31:13;23.00;99.90
31725;DHT22;18306;40.960;14.836;2023-06-26T00:33:40;22.90;99.90
31725;DHT22;18306;40.960;14.836;2023-06-26T00:36:07;22.90;99.90
31725;DHT22;18306;40.960;14.836;2023-06-26T00:38:35;23.00;99.90
31725;DHT22;18306;40.960;14.836;2023-06-26T00:41:02;23.00;99.90
31725;DHT22;18306;40.960;14.836;2023-06-26T00:43:30;23.10;99.90
31725;DHT22;18306;40.960;14.836;2023-06-26T00:45:56;23.10;99.90
31725;DHT22;18306;40.960;14.836;2023-06-26T00:48:23;23.10;99.90
31725;DHT22;18306;40.960;14.836;2023-06-26T00:50:51;23.10;99.90
31725;DHT22;18306;40.960;14.836;2023-06-26T00:53:18;23.10;99.90
31725;DHT22;18306;40.960;14.836;2023-06-26T00:55:46;23.00;99.90
31725;DHT22;18306;40.960;14.836;2023-06-26T00:58:14;23.00;99.90
31725;DHT22;18306;40.960;14.836;2023-06-26T01:00:41;22.80;99.90
31725;DHT22;18306;40.960;14.836;2023-06-26T01:03:08;22.70;99.90
31725;DHT22;18306;40.960;14.836;2023-06-26T01:05:35;22.70;99.90
31725;DHT22;18306;40.960;14.836;2023-06-26T01:08:02;22.70;99.90
31725;DHT22;18306;40.960;14.836;2023-06-26T01:10:31;22.70;99.90
31725;DHT22;18306;40.960;14.836;2023-06-26T01:12:58;22.60;99.90
31725;DHT22;18306;40.960;14.836;2023-06-26T01:15:25;22.60;99.90
31725;DHT22;18306;40.960;14.836;2023-06-26T01:17:52;22.60;99.90
31725;DHT22;18306;40.960;14.836;2023-06-26T01:20:20;22.60;99.90
31725;DHT22;18306;40.960;14.836;2023-06-26T01:23:29;22.50;99.90
31725;DHT22;18306;40.960;14.836;2023-06-26T01:26:21;22.40;99.90
31725;DHT22;18306;40.960;14.836;2023-06-26T01:28:52;22.40;99.90
31725;DHT22;18306;40.960;14.836;2023-06-26T01:31:20;22.40;99.90
31725;DHT22;18306;40.960;14.836;2023-06-26T01:33:47;22.40;99.90
31725;DHT22;18306;40.960;14.836;2023-06-26T01:36:14;22.50;99.90
31725;DHT22;18306;40.960;14.836;2023-06-26T01:38:41;22.50;99.90
31725;DHT22;18306;40.960;14.836;2023-06-26T01:41:08;22.40;99.90
31725;DHT22;18306;40.960;14.836;2023-06-26T01:43:54;22.40;99.90
31725;DHT22;18306;40.960;14.836;2023-06-26T01:46:25;22.40;99.90
31725;DHT22;18306;40.960;14.836;2023-06-26T01:49:02;22.30;99.90
31725;DHT22;18306;40.960;14.836;2023-06-26T01:51:32;22.30;99.90
31725;DHT22;18306;40.960;14.836;2023-06-26T01:54:01;22.30;99.90
31725;DHT22;18306;40.960;14.836;2023-06-26T01:56:29;22.20;99.90
31725;DHT22;18306;40.960;14.836;2023-06-26T01:58:57;22.20;99.90
31725;DHT22;18306;40.960;14.836;2023-06-26T02:01:26;22.20;99.90
31725;DHT22;18306;40.960;14.836;2023-06-26T02:03:53;22.10;99.90
31725;DHT22;18306;40.960;14.836;2023-06-26T02:06:20;22.00;99.90
31725;DHT22;18306;40.960;14.836;2023-06-26T02:08:49;21.90;99.90
31725;DHT22;18306;40.960;14.836;2023-06-26T02:11:16;21.90;99.90
31725;DHT22;18306;40.960;14.836;2023-06-26T02:13:43;21.90;99.90
31725;DHT22;18306;40.960;14.836;2023-06-26T02:16:10;21.90;99.90
31725;DHT22;18306;40.960;14.836;2023-06-26T02:18:37;21.80;99.90
31725;DHT22;18306;40.960;14.836;2023-06-26T02:21:07;21.80;99.90
31725;DHT22;18306;40.960;14.836;2023-06-26T02:23:42;21.80;99.90
31725;DHT22;18306;40.960;14.836;2023-06-26T02:26:12;21.80;99.90
31725;DHT22;18306;40.960;14.836;2023-06-26T02:28:48;21.70;99.90
31725;DHT22;18306;40.960;14.836;2023-06-26T02:31:17;21.80;99.90
31725;DHT22;18306;40.960;14.836;2023-06-26T02:33:44;21.90;99.90
31725;DHT22;18306;40.960;14.836;2023-06-26T02:36:12;21.90;99.90
31725;DHT22;18306;40.960;14.836;2023-06-26T02:38:40;21.90;99.90
31725;DHT22;18306;40.960;14.836;2023-06-26T02:41:08;21.90;99.90
31725;DHT22;18306;40.960;14.836;2023-06-26T02:43:36;21.90;99.90
31725;DHT22;18306;40.960;14.836;2023-06-26T02:46:03;21.90;99.90
31725;DHT22;18306;40.960;14.836;2023-06-26T02:48:30;21.90;99.90
31725;DHT22;18306;40.960;14.836;2023-06-26T02:50:57;21.80;99.90
31725;DHT22;18306;40.960;14.836;2023-06-26T02:53:28;21.80;99.90
31725;DHT22;18306;40.960;14.836;2023-06-26T02:55:56;21.70;99.90
31725;DHT22;18306;40.960;14.836;2023-06-26T02:58:23;21.80;99.90
31725;DHT22;18306;40.960;14.836;2023-06-26T03:00:50;21.80;99.90
31725;DHT22;18306;40.960;14.836;2023-06-26T03:03:19;21.70;99.90
31725;DHT22;18306;40.960;14.836;2023-06-26T03:05:46;21.80;99.90
31725;DHT22;18306;40.960;14.836;2023-06-26T03:08:13;21.80;99.90
31725;DHT22;18306;40.960;14.836;2023-06-26T03:10:40;21.80;99.90
31725;DHT22;18306;40.960;14.836;2023-06-26T03:13:07;21.80;99.90
31725;DHT22;18306;40.960;14.836;2023-06-26T03:15:34;21.80;99.90
31725;DHT22;18306;40.960;14.836;2023-06-26T03:18:01;21.80;99.90
31725;DHT22;18306;40.960;14.836;2023-06-26T03:20:29;21.80;99.90
31725;DHT22;18306;40.960;14.836;2023-06-26T03:22:58;21.90;99.90
31725;DHT22;18306;40.960;14.836;2023-06-26T03:25:25;21.90;99.90
31725;DHT22;18306;40.960;14.836;2023-06-26T03:28:05;21.90;99.90
31725;DHT22;18306;40.960;14.836;2023-06-26T03:30:34;21.90;99.90
31725;DHT22;18306;40.960;14.836;2023-06-26T03:33:01;21.90;99.90
31725;DHT22;18306;40.960;14.836;2023-06-26T03:35:28;21.80;99.90
31725;DHT22;18306;40.960;14.836;2023-06-26T03:37:56;21.70;99.90
31725;DHT22;18306;40.960;14.836;2023-06-26T03:40:23;21.60;99.90
31725;DHT22;18306;40.960;14.836;2023-06-26T03:42:50;21.60;99.90
31725;DHT22;18306;40.960;14.836;2023-06-26T03:45:18;21.70;99.90
31725;DHT22;18306;40.960;14.836;2023-06-26T03:47:46;21.70;99.90
31725;DHT22;18306;40.960;14.836;2023-06-26T03:50:16;21.80;99.90
31725;DHT22;18306;40.960;14.836;2023-06-26T03:52:44;21.80;99.90
31725;DHT22;18306;40.960;14.836;2023-06-26T03:55:13;21.90;99.90
31725;DHT22;18306;40.960;14.836;2023-06-26T03:57:40;21.80;99.90
31725;DHT22;18306;40.960;14.836;2023-06-26T04:00:10;21.90;99.90
31725;DHT22;18306;40.960;14.836;2023-06-26T04:02:43;21.90;99.90
31725;DHT22;18306;40.960;14.836;2023-06-26T04:05:11;21.80;99.90
31725;DHT22;18306;40.960;14.836;2023-06-26T04:07:38;21.70;99.90
31725;DHT22;18306;40.960;14.836;2023-06-26T04:10:07;21.80;99.90
31725;DHT22;18306;40.960;14.836;2023-06-26T04:12:35;21.80;99.90
31725;DHT22;18306;40.960;14.836;2023-06-26T04:15:02;21.90;99.90
31725;DHT22;18306;40.960;14.836;2023-06-26T04:17:30;21.90;99.90
31725;DHT22;18306;40.960;14.836;2023-06-26T04:19:57;22.00;99.90
31725;DHT22;18306;40.960;14.836;2023-06-26T04:22:24;22.00;99.90
31725;DHT22;18306;40.960;14.836;2023-06-26T04:24:52;22.10;99.90
31725;DHT22;18306;40.960;14.836;2023-06-26T04:27:19;22.10;99.90
31725;DHT22;18306;40.960;14.836;2023-06-26T04:29:46;22.10;99.90
31725;DHT22;18306;40.960;14.836;2023-06-26T04:32:13;22.10;99.90
31725;DHT22;18306;40.960;14.836;2023-06-26T04:34:40;22.20;99.90
31725;DHT22;18306;40.960;14.836;2023-06-26T04:37:10;22.20;99.90
31725;DHT22;18306;40.960;14.836;2023-06-26T04:39:37;22.10;99.90
31725;DHT22;18306;40.960;14.836;2023-06-26T04:42:05;22.00;99.90
31725;DHT22;18306;40.960;14.836;2023-06-26T04:44:33;22.00;99.90
31725;DHT22;18306;40.960;14.836;2023-06-26T04:47:00;22.10;99.90
31725;DHT22;18306;40.960;14.836;2023-06-26T04:49:27;22.30;99.90
31725;DHT22;18306;40.960;14.836;2023-06-26T04:51:55;22.30;99.90
31725;DHT22;18306;40.960;14.836;2023-06-26T04:54:22;22.30;99.90
31725;DHT22;18306;40.960;14.836;2023-06-26T04:56:49;22.30;99.90
31725;DHT22;18306;40.960;14.836;2023-06-26T04:59:17;22.20;99.90
31725;DHT22;18306;40.960;14.836;2023-06-26T05:01:43;22.20;99.90
31725;DHT22;18306;40.960;14.836;2023-06-26T05:04:15;22.10;99.90
31725;DHT22;18306;40.960;14.836;2023-06-26T05:06:42;22.30;99.90
31725;DHT22;18306;40.960;14.836;2023-06-26T05:09:10;22.30;99.90
31725;DHT22;18306;40.960;14.836;2023-06-26T05:11:37;22.20;99.90
31725;DHT22;18306;40.960;14.836;2023-06-26T05:14:05;22.00;99.90
31725;DHT22;18306;40.960;14.836;2023-06-26T05:16:34;22.00;99.90
31725;DHT22;18306;40.960;14.836;2023-06-26T05:19:01;22.20;99.90
31725;DHT22;18306;40.960;14.836;2023-06-26T05:21:28;22.30;99.90
31725;DHT22;18306;40.960;14.836;2023-06-26T05:23:57;22.30;99.90
31725;DHT22;18306;40.960;14.836;2023-06-26T05:26:25;22.50;99.90
31725;DHT22;18306;40.960;14.836;2023-06-26T05:28:53;22.80;99.90
31725;DHT22;18306;40.960;14.836;2023-06-26T05:31:20;22.90;99.90
31725;DHT22;18306;40.960;14.836;2023-06-26T05:33:49;23.10;99.90
31725;DHT22;18306;40.960;14.836;2023-06-26T05:36:16;23.30;99.90
31725;DHT22;18306;40.960;14.836;2023-06-26T05:38:45;23.60;99.90
31725;DHT22;18306;40.960;14.836;2023-06-26T05:41:12;23.80;99.90
31725;DHT22;18306;40.960;14.836;2023-06-26T05:43:39;24.10;99.90
31725;DHT22;18306;40.960;14.836;2023-06-26T05:46:06;24.20;99.90
31725;DHT22;18306;40.960;14.836;2023-06-26T05:48:33;24.60;99.90
31725;DHT22;18306;40.960;14.836;2023-06-26T05:51:01;25.10;99.90
31725;DHT22;18306;40.960;14.836;2023-06-26T05:53:28;25.40;99.90
31725;DHT22;18306;40.960;14.836;2023-06-26T05:55:56;25.60;99.90
31725;DHT22;18306;40.960;14.836;2023-06-26T05:58:27;25.80;99.90
31725;DHT22;18306;40.960;14.836;2023-06-26T06:00:54;26.10;99.90
31725;DHT22;18306;40.960;14.836;2023-06-26T06:03:22;26.50;99.90
31725;DHT22;18306;40.960;14.836;2023-06-26T06:05:49;27.00;99.90
31725;DHT22;18306;40.960;14.836;2023-06-26T06:08:20;27.30;99.90
31725;DHT22;18306;40.960;14.836;2023-06-26T06:10:47;27.40;99.90
31725;DHT22;18306;40.960;14.836;2023-06-26T06:13:14;27.80;99.90
31725;DHT22;18306;40.960;14.836;2023-06-26T06:15:41;28.00;99.90
31725;DHT22;18306;40.960;14.836;2023-06-26T06:18:08;28.70;99.90
31725;DHT22;18306;40.960;14.836;2023-06-26T06:20:35;29.70;99.90
31725;DHT22;18306;40.960;14.836;2023-06-26T06:23:02;30.70;99.50
31725;DHT22;18306;40.960;14.836;2023-06-26T06:25:29;31.90;97.80
31725;DHT22;18306;40.960;14.836;2023-06-26T06:27:56;33.00;96.20
31725;DHT22;18306;40.960;14.836;2023-06-26T06:30:23;34.00;94.50
31725;DHT22;18306;40.960;14.836;2023-06-26T06:32:50;34.50;93.80
31725;DHT22;18306;40.960;14.836;2023-06-26T06:35:19;34.70;93.10
31725;DHT22;18306;40.960;14.836;2023-06-26T06:37:46;34.40;92.90
31725;DHT22;18306;40.960;14.836;2023-06-26T06:40:13;33.80;91.40
31725;DHT22;18306;40.960;14.836;2023-06-26T06:42:40;33.00;93.40
31725;DHT22;18306;40.960;14.836;2023-06-26T06:45:07;32.50;93.00
31725;DHT22;18306;40.960;14.836;2023-06-26T06:47:34;31.90;92.60
31725;DHT22;18306;40.960;14.836;2023-06-26T06:50:02;31.20;93.70
31725;DHT22;18306;40.960;14.836;2023-06-26T06:52:39;30.90;94.60
31725;DHT22;18306;40.960;14.836;2023-06-26T06:55:07;30.80;94.40
31725;DHT22;18306;40.960;14.836;2023-06-26T06:57:38;30.50;92.60
31725;DHT22;18306;40.960;14.836;2023-06-26T07:03:36;30.00;93.20
31725;DHT22;18306;40.960;14.836;2023-06-26T07:06:03;29.50;94.10
31725;DHT22;18306;40.960;14.836;2023-06-26T07:08:30;29.50;94.50
31725;DHT22;18306;40.960;14.836;2023-06-26T07:10:57;29.50;93.70
31725;DHT22;18306;40.960;14.836;2023-06-26T08:33:22;32.20;90.00
31725;DHT22;18306;40.960;14.836;2023-06-26T08:35:50;32.00;90.60
31725;DHT22;18306;40.960;14.836;2023-06-26T08:42:44;31.40;91.40
31725;DHT22;18306;40.960;14.836;2023-06-26T08:45:11;31.40;90.70
31725;DHT22;18306;40.960;14.836;2023-06-26T08:47:41;31.30;91.10
31725;DHT22;18306;40.960;14.836;2023-06-26T08:50:13;31.20;91.20
31725;DHT22;18306;40.960;14.836;2023-06-26T08:52:59;30.90;91.30
31725;DHT22;18306;40.960;14.836;2023-06-26T08:55:29;30.70;91.50
31725;DHT22;18306;40.960;14.836;2023-06-26T08:57:57;30.50;91.30
31725;DHT22;18306;40.960;14.836;2023-06-26T09:00:25;30.40;92.40
31725;DHT22;18306;40.960;14.836;2023-06-26T09:02:52;30.30;92.40
31725;DHT22;18306;40.960;14.836;2023-06-26T09:05:19;30.30;92.40
31725;DHT22;18306;40.960;14.836;2023-06-26T09:07:46;30.40;92.50
31725;DHT22;18306;40.960;14.836;2023-06-26T09:10:13;30.20;92.60
31725;DHT22;18306;40.960;14.836;2023-06-26T09:12:41;29.80;93.20
31725;DHT22;18306;40.960;14.836;2023-06-26T09:15:14;29.50;93.70
31725;DHT22;18306;40.960;14.836;2023-06-26T09:17:42;29.70;93.10
31725;DHT22;18306;40.960;14.836;2023-06-26T09:20:09;29.90;93.10
31725;DHT22;18306;40.960;14.836;2023-06-26T09:22:37;30.30;93.10
31725;DHT22;18306;40.960;14.836;2023-06-26T09:25:05;30.50;92.50
31725;DHT22;18306;40.960;14.836;2023-06-26T09:27:33;30.60;92.60
31725;DHT22;18306;40.960;14.836;2023-06-26T09:30:02;30.50;92.80
31725;DHT22;18306;40.960;14.836;2023-06-26T09:32:29;30.60;92.70
31725;DHT22;18306;40.960;14.836;2023-06-26T09:34:57;30.20;92.20
31725;DHT22;18306;40.960;14.836;2023-06-26T09:37:24;30.30;92.40
31725;DHT22;18306;40.960;14.836;2023-06-26T09:39:51;30.40;92.00
31725;DHT22;18306;40.960;14.836;2023-06-26T09:42:19;30.40;92.60
31725;DHT22;18306;40.960;14.836;2023-06-26T09:44:47;30.30;92.30
31725;DHT22;18306;40.960;14.836;2023-06-26T09:51:39;30.20;92.00
31725;DHT22;18306;40.960;14.836;2023-06-26T09:54:06;29.90;92.50
31725;DHT22;18306;40.960;14.836;2023-06-26T09:56:34;29.80;91.50
31725;DHT22;18306;40.960;14.836;2023-06-26T09:59:03;30.00;92.90
31725;DHT22;18306;40.960;14.836;2023-06-26T10:01:32;30.10;93.20
31725;DHT22;18306;40.960;14.836;2023-06-26T10:04:00;30.30;93.00
31725;DHT22;18306;40.960;14.836;2023-06-26T10:06:39;30.60;92.90
31725;DHT22;18306;40.960;14.836;2023-06-26T10:09:08;30.60;91.80
31725;DHT22;18306;40.960;14.836;2023-06-26T10:11:51;30.60;92.00
31725;DHT22;18306;40.960;14.836;2023-06-26T10:14:20;30.60;92.00
31725;DHT22;18306;40.960;14.836;2023-06-26T10:16:49;30.60;92.60
31725;DHT22;18306;40.960;14.836;2023-06-26T10:19:30;30.50;91.90
31725;DHT22;18306;40.960;14.836;2023-06-26T10:22:16;30.20;92.60
31725;DHT22;18306;40.960;14.836;2023-06-26T10:24:47;30.00;93.00
31725;DHT22;18306;40.960;14.836;2023-06-26T10:27:21;30.10;92.90
31725;DHT22;18306;40.960;14.836;2023-06-26T10:29:58;30.30;93.00
31725;DHT22;18306;40.960;14.836;2023-06-26T10:32:27;30.30;92.20
31725;DHT22;18306;40.960;14.836;2023-06-26T10:34:56;30.30;93.20
31725;DHT22;18306;40.960;14.836;2023-06-26T10:37:45;30.50;92.30
31725;DHT22;18306;40.960;14.836;2023-06-26T10:40:25;30.60;92.90
31725;DHT22;18306;40.960;14.836;2023-06-26T10:43:05;30.80;92.90
31725;DHT22;18306;40.960;14.836;2023-06-26T10:45:34;30.80;92.70
31725;DHT22;18306;40.960;14.836;2023-06-26T10:48:02;30.90;92.10
31725;DHT22;18306;40.960;14.836;2023-06-26T10:50:31;30.90;92.50
31725;DHT22;18306;40.960;14.836;2023-06-26T10:53:11;31.00;92.50
31725;DHT22;18306;40.960;14.836;2023-06-26T10:58:47;31.20;91.50
31725;DHT22;18306;40.960;14.836;2023-06-26T11:01:30;31.10;91.70
31725;DHT22;18306;40.960;14.836;2023-06-26T11:04:10;30.90;91.60
31725;DHT22;18306;40.960;14.836;2023-06-26T11:06:38;30.90;91.60
31725;DHT22;18306;40.960;14.836;2023-06-26T11:14:22;30.60;92.70
31725;DHT22;18306;40.960;14.836;2023-06-26T11:16:50;30.90;92.90
31725;DHT22;18306;40.960;14.836;2023-06-26T11:19:18;31.20;92.70
31725;DHT22;18306;40.960;14.836;2023-06-26T11:21:45;31.20;90.70
31725;DHT22;18306;40.960;14.836;2023-06-26T11:24:13;31.00;91.30
31725;DHT22;18306;40.960;14.836;2023-06-26T11:26:42;30.90;92.50
31725;DHT22;18306;40.960;14.836;2023-06-26T11:29:10;31.00;92.00
31725;DHT22;18306;40.960;14.836;2023-06-26T11:31:44;31.00;91.90
31725;DHT22;18306;40.960;14.836;2023-06-26T11:34:13;31.10;92.70
31725;DHT22;18306;40.960;14.836;2023-06-26T11:36:42;31.20;92.60
31725;DHT22;18306;40.960;14.836;2023-06-26T11:39:12;31.50;92.20
31725;DHT22;18306;40.960;14.836;2023-06-26T11:41:50;31.60;92.10
31725;DHT22;18306;40.960;14.836;2023-06-26T11:44:29;31.60;92.10
31725;DHT22;18306;40.960;14.836;2023-06-26T11:46:57;31.70;92.30
31725;DHT22;18306;40.960;14.836;2023-06-26T11:49:29;31.70;91.40
31725;DHT22;18306;40.960;14.836;2023-06-26T11:51:56;31.70;90.60
31725;DHT22;18306;40.960;14.836;2023-06-26T11:54:25;31.80;92.00
31725;DHT22;18306;40.960;14.836;2023-06-26T11:56:59;31.90;91.80
31725;DHT22;18306;40.960;14.836;2023-06-26T11:59:38;32.00;91.10
31725;DHT22;18306;40.960;14.836;2023-06-26T12:02:07;31.80;91.70
31725;DHT22;18306;40.960;14.836;2023-06-26T12:04:43;31.50;91.10
31725;DHT22;18306;40.960;14.836;2023-06-26T12:07:11;31.40;91.90
31725;DHT22;18306;40.960;14.836;2023-06-26T12:09:43;31.40;91.60
31725;DHT22;18306;40.960;14.836;2023-06-26T12:12:14;31.40;90.80
31725;DHT22;18306;40.960;14.836;2023-06-26T12:14:41;31.40;90.90
31725;DHT22;18306;40.960;14.836;2023-06-26T12:17:13;31.50;90.10
31725;DHT22;18306;40.960;14.836;2023-06-26T12:19:47;31.70;91.50
31725;DHT22;18306;40.960;14.836;2023-06-26T12:22:18;31.90;91.00
31725;DHT22;18306;40.960;14.836;2023-06-26T12:24:46;31.60;89.40
31725;DHT22;18306;40.960;14.836;2023-06-26T12:27:15;31.80;90.00
31725;DHT22;18306;40.960;14.836;2023-06-26T12:29:51;31.70;90.40
31725;DHT22;18306;40.960;14.836;2023-06-26T12:32:24;31.70;90.10
31725;DHT22;18306;40.960;14.836;2023-06-26T12:35:35;31.70;90.90
31725;DHT22;18306;40.960;14.836;2023-06-26T12:38:17;31.80;91.10
31725;DHT22;18306;40.960;14.836;2023-06-26T12:40:47;31.70;90.80
31725;DHT22;18306;40.960;14.836;2023-06-26T12:43:25;31.90;90.20
31725;DHT22;18306;40.960;14.836;2023-06-26T12:45:56;32.00;90.60
31725;DHT22;18306;40.960;14.836;2023-06-26T12:48:44;32.20;90.70
31725;DHT22;18306;40.960;14.836;2023-06-26T12:51:17;32.30;89.10
31725;DHT22;18306;40.960;14.836;2023-06-26T12:53:44;32.20;88.50
31725;DHT22;18306;40.960;14.836;2023-06-26T12:56:12;32.30;88.90
31725;DHT22;18306;40.960;14.836;2023-06-26T12:58:38;32.00;90.00
31725;DHT22;18306;40.960;14.836;2023-06-26T13:01:07;31.90;90.00
31725;DHT22;18306;40.960;14.836;2023-06-26T13:03:41;32.00;90.10
31725;DHT22;18306;40.960;14.836;2023-06-26T13:06:08;32.00;90.40
31725;DHT22;18306;40.960;14.836;2023-06-26T13:08:35;31.90;90.40
31725;DHT22;18306;40.960;14.836;2023-06-26T13:11:03;32.00;90.80
31725;DHT22;18306;40.960;14.836;2023-06-26T13:13:31;31.90;91.00
31725;DHT22;18306;40.960;14.836;2023-06-26T13:15:58;31.90;91.20
31725;DHT22;18306;40.960;14.836;2023-06-26T13:18:25;32.00;91.10
31725;DHT22;18306;40.960;14.836;2023-06-26T13:20:52;32.30;90.90
31725;DHT22;18306;40.960;14.836;2023-06-26T13:23:20;32.50;90.80
31725;DHT22;18306;40.960;14.836;2023-06-26T13:25:46;32.50;89.40
31725;DHT22;18306;40.960;14.836;2023-06-26T13:28:15;32.40;90.20
31725;DHT22;18306;40.960;14.836;2023-06-26T13:30:44;32.40;90.40
31725;DHT22;18306;40.960;14.836;2023-06-26T13:33:18;32.50;90.30
31725;DHT22;18306;40.960;14.836;2023-06-26T13:35:47;32.40;89.90
31725;DHT22;18306;40.960;14.836;2023-06-26T13:38:14;32.20;88.10
31725;DHT22;18306;40.960;14.836;2023-06-26T13:40:41;32.20;90.90
31725;DHT22;18306;40.960;14.836;2023-06-26T13:43:09;32.40;90.50
31725;DHT22;18306;40.960;14.836;2023-06-26T13:45:37;32.20;88.20
31725;DHT22;18306;40.960;14.836;2023-06-26T13:48:05;32.30;88.30
31725;DHT22;18306;40.960;14.836;2023-06-26T13:50:33;32.50;88.10
31725;DHT22;18306;40.960;14.836;2023-06-26T13:53:02;32.40;90.20
31725;DHT22;18306;40.960;14.836;2023-06-26T13:55:29;32.40;90.00
31725;DHT22;18306;40.960;14.836;2023-06-26T13:57:56;32.40;88.60
31725;DHT22;18306;40.960;14.836;2023-06-26T14:00:23;32.50;88.90
31725;DHT22;18306;40.960;14.836;2023-06-26T14:02:50;32.40;88.70
31725;DHT22;18306;40.960;14.836;2023-06-26T14:05:17;32.50;88.40
31725;DHT22;18306;40.960;14.836;2023-06-26T14:07:48;32.30;87.40
31725;DHT22;18306;40.960;14.836;2023-06-26T14:10:16;32.10;89.30
31725;DHT22;18306;40.960;14.836;2023-06-26T14:12:43;32.10;90.10
31725;DHT22;18306;40.960;14.836;2023-06-26T14:15:10;31.90;90.00
31725;DHT22;18306;40.960;14.836;2023-06-26T14:17:38;31.60;88.90
31725;DHT22;18306;40.960;14.836;2023-06-26T14:20:08;31.80;88.70
31725;DHT22;18306;40.960;14.836;2023-06-26T14:22:41;32.00;90.30
31725;DHT22;18306;40.960;14.836;2023-06-26T14:25:11;31.80;90.00
31725;DHT22;18306;40.960;14.836;2023-06-26T14:27:39;31.90;90.20
31725;DHT22;18306;40.960;14.836;2023-06-26T14:30:07;31.90;88.60
31725;DHT22;18306;40.960;14.836;2023-06-26T14:32:35;32.20;89.20
31725;DHT22;18306;40.960;14.836;2023-06-26T14:35:02;32.20;87.50
31725;DHT22;18306;40.960;14.836;2023-06-26T14:37:35;32.20;87.80
31725;DHT22;18306;40.960;14.836;2023-06-26T14:40:03;32.20;89.40
31725;DHT22;18306;40.960;14.836;2023-06-26T14:42:32;32.20;89.70
31725;DHT22;18306;40.960;14.836;2023-06-26T14:44:59;32.30;87.60
31725;DHT22;18306;40.960;14.836;2023-06-26T14:47:26;32.30;87.30
31725;DHT22;18306;40.960;14.836;2023-06-26T14:49:53;32.40;87.50
31725;DHT22;18306;40.960;14.836;2023-06-26T14:52:20;32.50;89.30
31725;DHT22;18306;40.960;14.836;2023-06-26T14:54:47;32.30;89.40
31725;DHT22;18306;40.960;14.836;2023-06-26T14:57:15;32.30;89.00
31725;DHT22;18306;40.960;14.836;2023-06-26T14:59:43;32.20;90.00
31725;DHT22;18306;40.960;14.836;2023-06-26T15:02:18;32.10;90.10
31725;DHT22;18306;40.960;14.836;2023-06-26T15:04:46;32.00;90.40
31725;DHT22;18306;40.960;14.836;2023-06-26T15:07:14;31.90;90.20
31725;DHT22;18306;40.960;14.836;2023-06-26T15:09:41;32.00;90.60
31725;DHT22;18306;40.960;14.836;2023-06-26T15:12:08;32.00;90.60
31725;DHT22;18306;40.960;14.836;2023-06-26T15:14:35;32.00;90.80
31725;DHT22;18306;40.960;14.836;2023-06-26T15:17:02;32.00;90.30
31725;DHT22;18306;40.960;14.836;2023-06-26T15:19:29;32.10;90.90
31725;DHT22;18306;40.960;14.836;2023-06-26T15:21:56;32.40;91.00
31725;DHT22;18306;40.960;14.836;2023-06-26T15:24:23;32.50;90.60
31725;DHT22;18306;40.960;14.836;2023-06-26T15:26:50;32.60;90.60
31725;DHT22;18306;40.960;14.836;2023-06-26T15:29:17;32.60;90.90
31725;DHT22;18306;40.960;14.836;2023-06-26T15:31:44;32.30;90.90
31725;DHT22;18306;40.960;14.836;2023-06-26T15:34:12;31.90;90.70
31725;DHT22;18306;40.960;14.836;2023-06-26T15:36:40;31.90;90.70
31725;DHT22;18306;40.960;14.836;2023-06-26T15:39:08;31.90;90.90
31725;DHT22;18306;40.960;14.836;2023-06-26T15:41:35;31.90;91.20
31725;DHT22;18306;40.960;14.836;2023-06-26T15:44:04;31.80;90.90
31725;DHT22;18306;40.960;14.836;2023-06-26T15:46:31;31.70;90.40
31725;DHT22;18306;40.960;14.836;2023-06-26T15:48:58;31.60;90.10
31725;DHT22;18306;40.960;14.836;2023-06-26T15:51:25;31.60;90.80
31725;DHT22;18306;40.960;14.836;2023-06-26T15:53:52;31.50;90.90
31725;DHT22;18306;40.960;14.836;2023-06-26T15:56:19;31.50;90.80
31725;DHT22;18306;40.960;14.836;2023-06-26T15:58:46;31.50;90.20
31725;DHT22;18306;40.960;14.836;2023-06-26T16:01:15;31.40;90.60
31725;DHT22;18306;40.960;14.836;2023-06-26T16:03:43;31.50;90.60
31725;DHT22;18306;40.960;14.836;2023-06-26T16:06:10;31.50;90.20
31725;DHT22;18306;40.960;14.836;2023-06-26T16:08:37;31.40;90.20
31725;DHT22;18306;40.960;14.836;2023-06-26T16:11:05;31.30;90.30
31725;DHT22;18306;40.960;14.836;2023-06-26T16:13:33;31.40;90.80
31725;DHT22;18306;40.960;14.836;2023-06-26T16:16:00;31.30;90.10
31725;DHT22;18306;40.960;14.836;2023-06-26T16:18:27;31.30;90.90
31725;DHT22;18306;40.960;14.836;2023-06-26T16:20:56;31.30;90.10
31725;DHT22;18306;40.960;14.836;2023-06-26T16:23:23;31.10;89.80
31725;DHT22;18306;40.960;14.836;2023-06-26T16:25:50;31.10;90.80
31725;DHT22;18306;40.960;14.836;2023-06-26T16:28:17;30.90;90.40
31725;DHT22;18306;40.960;14.836;2023-06-26T16:30:45;30.80;90.90
31725;DHT22;18306;40.960;14.836;2023-06-26T16:33:11;30.90;89.70
31725;DHT22;18306;40.960;14.836;2023-06-26T16:35:39;30.80;90.10
31725;DHT22;18306;40.960;14.836;2023-06-26T16:38:08;30.70;90.10
31725;DHT22;18306;40.960;14.836;2023-06-26T16:40:36;30.70;90.70
31725;DHT22;18306;40.960;14.836;2023-06-26T16:43:03;30.60;91.30
31725;DHT22;18306;40.960;14.836;2023-06-26T16:45:30;30.60;91.80
31725;DHT22;18306;40.960;14.836;2023-06-26T16:47:57;30.80;91.20
31725;DHT22;18306;40.960;14.836;2023-06-26T16:50:24;30.90;91.70
31725;DHT22;18306;40.960;14.836;2023-06-26T16:52:55;31.00;91.40
31725;DHT22;18306;40.960;14.836;2023-06-26T16:55:22;30.80;91.60
31725;DHT22;18306;40.960;14.836;2023-06-26T16:57:49;30.80;91.60
31725;DHT22;18306;40.960;14.836;2023-06-26T17:00:16;31.00;91.90
31725;DHT22;18306;40.960;14.836;2023-06-26T17:02:44;31.20;92.20
31725;DHT22;18306;40.960;14.836;2023-06-26T17:05:12;31.30;91.20
31725;DHT22;18306;40.960;14.836;2023-06-26T17:07:39;31.10;91.20